Time;durP1;ratioP1;P1;durP2;ratioP2;P2;SDS_P1;SDS_P2;PMS_P1;PMS_P2;Temp;Humidity;BMP_temperature;BMP_pressure;BME280_temperature;BME280_humidity;BME280_pressure;Samples;Min_cycle;Max_cycle;Signal;HPM_P1;HPM_P2
2023/06/28 00:00:06;;;;;;;3.70;1.73;;;;;;;;;;5052793;28;20480;-78
2023/06/28 00:02:35;;;;;;;2.15;1.50;;;;;;;;;;5053107;28;20420;-80
2023/06/28 00:05:03;;;;;;;3.28;1.55;;;;;;;;;;5053275;28;20404;-77
2023/06/28 00:07:29;;;;;;;2.45;1.58;;;;;;;;;;5053358;28;20385;-77
2023/06/28 00:09:55;;;;;;;1.55;1.35;;;;;;;;;;5050895;28;20862;-78
2023/06/28 00:12:21;;;;;;;3.60;1.63;;;;;;;;;;5046311;28;20474;-77
2023/06/28 00:14:48;;;;;;;2.28;1.60;;;;;;;;;;5044681;28;20416;-77
2023/06/28 00:17:14;;;;;;;2.38;1.40;;;;;;;;;;5046124;28;20422;-78
2023/06/28 00:19:47;;;;;;;2.55;1.40;;;;;;;;;;5049033;28;20407;-77
2023/06/28 00:22:13;;;;;;;2.13;1.60;;;;;;;;;;5050691;28;20381;-80
2023/06/28 00:24:39;;;;;;;2.05;1.58;;;;;;;;;;5051456;28;20807;-78
2023/06/28 00:27:05;;;;;;;2.17;1.50;;;;;;;;;;5052865;28;20416;-78
2023/06/28 00:29:31;;;;;;;2.17;1.60;;;;;;;;;;5041433;28;20390;-77
2023/06/28 00:31:57;;;;;;;2.20;1.23;;;;;;;;;;5043526;28;20451;-80
2023/06/28 00:34:23;;;;;;;2.85;1.55;;;;;;;;;;5048821;28;20381;-78
2023/06/28 00:36:49;;;;;;;3.22;1.50;;;;;;;;;;5052543;28;20384;-79
2023/06/28 00:39:15;;;;;;;2.53;1.60;;;;;;;;;;5047068;28;20444;-79
2023/06/28 00:41:41;;;;;;;3.97;1.60;;;;;;;;;;5044771;28;20415;-79
2023/06/28 00:44:07;;;;;;;3.95;1.80;;;;;;;;;;5043876;28;20912;-78
2023/06/28 00:46:35;;;;;;;3.10;1.50;;;;;;;;;;5050765;28;20438;-79
2023/06/28 00:49:02;;;;;;;2.15;1.65;;;;;;;;;;5050820;28;20811;-79
2023/06/28 00:51:29;;;;;;;2.22;1.48;;;;;;;;;;5052132;28;20385;-79
2023/06/28 00:53:55;;;;;;;2.38;1.40;;;;;;;;;;5051582;28;20382;-79
2023/06/28 00:56:22;;;;;;;2.15;1.48;;;;;;;;;;5040121;28;20399;-79
2023/06/28 00:58:48;;;;;;;3.33;1.63;;;;;;;;;;5050277;28;20564;-79
2023/06/28 01:01:15;;;;;;;2.50;1.73;;;;;;;;;;5046749;28;20387;-79
2023/06/28 01:03:40;;;;;;;2.10;1.60;;;;;;;;;;5043382;28;20457;-79
2023/06/28 01:06:10;;;;;;;2.03;1.42;;;;;;;;;;5050088;28;20469;-79
2023/06/28 01:08:36;;;;;;;2.55;1.75;;;;;;;;;;5050119;28;20439;-79
2023/06/28 01:11:02;;;;;;;2.00;1.60;;;;;;;;;;5046630;28;20877;-79
2023/06/28 01:13:28;;;;;;;1.95;1.55;;;;;;;;;;5049273;28;20396;-80
2023/06/28 01:15:54;;;;;;;3.58;2.05;;;;;;;;;;5048674;28;20385;-78
2023/06/28 01:18:21;;;;;;;1.70;1.60;;;;;;;;;;5049635;28;20417;-79
2023/06/28 01:20:47;;;;;;;2.50;1.55;;;;;;;;;;5044701;28;20445;-79
2023/06/28 01:23:13;;;;;;;2.80;1.70;;;;;;;;;;5047590;28;20369;-79
2023/06/28 01:25:41;;;;;;;3.40;1.70;;;;;;;;;;5046005;28;20465;-79
2023/06/28 01:28:07;;;;;;;2.22;1.65;;;;;;;;;;5049783;28;20846;-79
2023/06/28 01:30:37;;;;;;;2.50;1.65;;;;;;;;;;5048904;28;20393;-78
2023/06/28 01:33:03;;;;;;;2.40;1.73;;;;;;;;;;5049865;28;20377;-78
2023/06/28 01:35:31;;;;;;;2.20;1.60;;;;;;;;;;5049980;28;20386;-79
2023/06/28 01:37:57;;;;;;;1.90;1.63;;;;;;;;;;5050776;28;20404;-79
2023/06/28 01:40:23;;;;;;;2.15;1.73;;;;;;;;;;5056336;28;20422;-79
2023/06/28 01:42:49;;;;;;;1.95;1.80;;;;;;;;;;5054746;28;20392;-79
2023/06/28 01:45:15;;;;;;;2.25;1.75;;;;;;;;;;5051860;28;20369;-79
2023/06/28 01:47:41;;;;;;;3.13;1.80;;;;;;;;;;5051950;28;20708;-79
2023/06/28 01:50:08;;;;;;;2.38;1.90;;;;;;;;;;5051757;28;20870;-79
2023/06/28 01:52:34;;;;;;;3.05;1.60;;;;;;;;;;5051767;28;20524;-78
2023/06/28 01:55:00;;;;;;;2.53;1.70;;;;;;;;;;5051753;28;20875;-79
2023/06/28 01:57:26;;;;;;;2.85;1.77;;;;;;;;;;5051402;28;20918;-78
2023/06/28 01:59:52;;;;;;;2.65;1.50;;;;;;;;;;5051917;28;20495;-79
2023/06/28 02:02:18;;;;;;;2.60;1.70;;;;;;;;;;5051082;28;20385;-78
2023/06/28 02:04:44;;;;;;;3.40;1.77;;;;;;;;;;5051096;28;20390;-78
2023/06/28 02:07:11;;;;;;;2.42;1.52;;;;;;;;;;5048418;28;20378;-78
2023/06/28 02:09:37;;;;;;;3.17;1.60;;;;;;;;;;5051541;28;20391;-78
2023/06/28 02:12:03;;;;;;;3.47;1.70;;;;;;;;;;5051473;28;20822;-78
2023/06/28 02:14:29;;;;;;;2.63;1.42;;;;;;;;;;5053193;28;20484;-78
2023/06/28 02:16:56;;;;;;;3.25;1.67;;;;;;;;;;5055055;28;20460;-78
2023/06/28 02:19:22;;;;;;;2.85;1.88;;;;;;;;;;5050447;28;20416;-78
2023/06/28 02:21:48;;;;;;;2.15;1.70;;;;;;;;;;5052238;28;20398;-79
2023/06/28 02:24:14;;;;;;;2.40;1.77;;;;;;;;;;5049001;28;20393;-78
2023/06/28 02:26:40;;;;;;;3.03;1.80;;;;;;;;;;5038485;28;20910;-78
2023/06/28 02:29:06;;;;;;;2.60;1.87;;;;;;;;;;5038076;28;20430;-80
2023/06/28 02:31:32;;;;;;;4.28;1.90;;;;;;;;;;5052152;28;20941;-79
2023/06/28 02:33:58;;;;;;;3.42;1.73;;;;;;;;;;5053468;28;20389;-79
2023/06/28 02:36:24;;;;;;;2.35;1.70;;;;;;;;;;5053904;28;20778;-79
2023/06/28 02:38:50;;;;;;;3.13;2.00;;;;;;;;;;5053762;28;20529;-78
2023/06/28 02:41:16;;;;;;;4.03;1.80;;;;;;;;;;5051898;28;20385;-78
2023/06/28 02:43:42;;;;;;;2.17;1.70;;;;;;;;;;5053874;28;20380;-80
2023/06/28 02:46:08;;;;;;;2.58;2.10;;;;;;;;;;5053781;28;20375;-78
2023/06/28 02:48:34;;;;;;;2.65;2.00;;;;;;;;;;5052490;28;21029;-79
2023/06/28 02:51:00;;;;;;;3.03;1.80;;;;;;;;;;5053807;28;20457;-79
2023/06/28 02:53:26;;;;;;;2.73;1.80;;;;;;;;;;5053689;28;20412;-78
2023/06/28 02:55:52;;;;;;;1.75;1.48;;;;;;;;;;5053726;28;20401;-77
2023/06/28 02:58:18;;;;;;;1.95;1.70;;;;;;;;;;5053420;28;20906;-78
2023/06/28 03:00:46;;;;;;;2.63;1.80;;;;;;;;;;5053516;28;20385;-78
2023/06/28 03:03:13;;;;;;;2.90;2.00;;;;;;;;;;5053444;28;20424;-78
2023/06/28 03:05:39;;;;;;;2.67;1.80;;;;;;;;;;5053650;28;20377;-78
2023/06/28 03:08:05;;;;;;;2.33;1.70;;;;;;;;;;5053376;28;20412;-79
2023/06/28 03:10:31;;;;;;;3.67;1.95;;;;;;;;;;5053434;28;20381;-79
2023/06/28 03:12:57;;;;;;;2.60;1.83;;;;;;;;;;5053208;28;20921;-79
2023/06/28 03:15:23;;;;;;;4.43;2.00;;;;;;;;;;5053339;28;20471;-79
2023/06/28 03:17:49;;;;;;;2.92;1.67;;;;;;;;;;5053667;28;20412;-78
2023/06/28 03:20:15;;;;;;;2.92;1.80;;;;;;;;;;5053627;28;20380;-78
2023/06/28 03:22:41;;;;;;;2.83;1.93;;;;;;;;;;5053200;28;20377;-77
2023/06/28 03:25:08;;;;;;;2.63;2.03;;;;;;;;;;5051094;28;20463;-78
2023/06/28 03:27:34;;;;;;;2.53;1.70;;;;;;;;;;5050340;28;20379;-78
2023/06/28 03:30:00;;;;;;;2.00;1.77;;;;;;;;;;5051058;28;20810;-78
2023/06/28 03:32:25;;;;;;;2.00;1.52;;;;;;;;;;5053372;28;20381;-78
2023/06/28 03:34:52;;;;;;;2.13;1.80;;;;;;;;;;5042867;28;20472;-78
2023/06/28 03:37:18;;;;;;;2.00;1.60;;;;;;;;;;5053779;28;20424;-78
2023/06/28 03:39:44;;;;;;;3.10;1.50;;;;;;;;;;5053803;28;20419;-78
2023/06/28 03:42:10;;;;;;;2.33;1.90;;;;;;;;;;5053589;28;20758;-76
2023/06/28 03:44:36;;;;;;;2.63;1.90;;;;;;;;;;5053695;28;20381;-78
2023/06/28 03:47:02;;;;;;;2.80;2.00;;;;;;;;;;5052120;28;20823;-78
2023/06/28 03:49:28;;;;;;;2.58;1.73;;;;;;;;;;5055131;28;20468;-78
2023/06/28 03:51:54;;;;;;;2.70;1.90;;;;;;;;;;5053742;28;20389;-78
2023/06/28 03:54:20;;;;;;;2.47;2.13;;;;;;;;;;5053298;28;20386;-78
2023/06/28 03:56:46;;;;;;;2.55;1.88;;;;;;;;;;5053129;28;20420;-78
2023/06/28 03:59:12;;;;;;;3.92;2.03;;;;;;;;;;5053144;28;20409;-78
2023/06/28 04:01:39;;;;;;;2.37;1.90;;;;;;;;;;5053332;28;20404;-78
2023/06/28 04:04:04;;;;;;;2.08;1.88;;;;;;;;;;5053364;28;20929;-78
2023/06/28 04:06:31;;;;;;;2.00;1.80;;;;;;;;;;5039290;28;20469;-78
2023/06/28 04:08:56;;;;;;;2.93;2.10;;;;;;;;;;5052525;28;20469;-78
2023/06/28 04:11:22;;;;;;;2.85;1.92;;;;;;;;;;5048171;28;20555;-78
2023/06/28 04:13:48;;;;;;;2.33;1.70;;;;;;;;;;5042791;28;20378;-78
2023/06/28 04:16:14;;;;;;;3.28;1.95;;;;;;;;;;5041858;28;20387;-78
2023/06/28 04:18:41;;;;;;;2.90;2.08;;;;;;;;;;5039918;28;20809;-78
2023/06/28 04:21:07;;;;;;;2.80;2.10;;;;;;;;;;5052884;28;20385;-78
2023/06/28 04:23:33;;;;;;;3.60;1.80;;;;;;;;;;5051928;28;20389;-78
2023/06/28 04:25:59;;;;;;;2.28;2.00;;;;;;;;;;5052814;28;20435;-78
2023/06/28 04:28:25;;;;;;;2.00;1.80;;;;;;;;;;5052707;28;20850;-78
2023/06/28 04:30:51;;;;;;;2.50;1.90;;;;;;;;;;5048485;28;20867;-78
2023/06/28 04:33:18;;;;;;;2.58;1.70;;;;;;;;;;5051274;28;20469;-78
2023/06/28 04:35:46;;;;;;;3.33;2.20;;;;;;;;;;5052912;28;20453;-78
2023/06/28 04:38:13;;;;;;;2.60;2.17;;;;;;;;;;5052430;28;20412;-78
2023/06/28 04:40:39;;;;;;;4.25;2.28;;;;;;;;;;5052456;28;20381;-78
2023/06/28 04:43:09;;;;;;;3.20;2.10;;;;;;;;;;5052566;28;20377;-78
2023/06/28 04:45:37;;;;;;;2.20;2.00;;;;;;;;;;5049685;28;20401;-77
2023/06/28 04:48:06;;;;;;;2.30;2.00;;;;;;;;;;5051890;28;20481;-78
2023/06/28 04:50:33;;;;;;;3.15;2.03;;;;;;;;;;5048136;28;20446;-78
2023/06/28 04:52:59;;;;;;;2.80;2.03;;;;;;;;;;5051856;28;20738;-78
2023/06/28 04:55:30;;;;;;;3.47;2.17;;;;;;;;;;5052466;28;20438;-79
2023/06/28 04:57:56;;;;;;;2.03;1.67;;;;;;;;;;5050556;28;20876;-79
2023/06/28 05:00:22;;;;;;;3.08;2.08;;;;;;;;;;5052375;28;20477;-79
2023/06/28 05:02:50;;;;;;;2.15;1.95;;;;;;;;;;5052037;28;20428;-79
2023/06/28 05:05:17;;;;;;;2.10;1.90;;;;;;;;;;5051279;28;20735;-77
2023/06/28 05:07:43;;;;;;;3.08;1.95;;;;;;;;;;5050757;28;20732;-78
2023/06/28 05:10:10;;;;;;;2.42;1.90;;;;;;;;;;5052160;28;20392;-80
2023/06/28 05:12:36;;;;;;;2.20;1.80;;;;;;;;;;5049693;28;20885;-78
2023/06/28 05:15:02;;;;;;;2.65;1.67;;;;;;;;;;5052084;28;20400;-79
2023/06/28 05:17:28;;;;;;;4.30;2.13;;;;;;;;;;5051913;28;20369;-79
2023/06/28 05:19:54;;;;;;;2.90;1.90;;;;;;;;;;5051927;28;20762;-78
2023/06/28 05:22:21;;;;;;;2.97;1.75;;;;;;;;;;5051944;28;20381;-78
2023/06/28 05:24:48;;;;;;;2.58;1.70;;;;;;;;;;5051995;28;20451;-77
2023/06/28 05:27:14;;;;;;;2.70;2.00;;;;;;;;;;5051803;28;20423;-78
2023/06/28 05:29:40;;;;;;;5.60;1.80;;;;;;;;;;5051824;28;20377;-79
2023/06/28 05:32:06;;;;;;;2.37;2.00;;;;;;;;;;5051184;28;20871;-78
2023/06/28 05:34:32;;;;;;;1.88;1.65;;;;;;;;;;5050334;28;20484;-79
2023/06/28 05:36:58;;;;;;;2.10;1.88;;;;;;;;;;5051729;28;20468;-79
2023/06/28 05:39:24;;;;;;;5.53;2.10;;;;;;;;;;5050821;28;20401;-80
2023/06/28 05:41:50;;;;;;;2.83;1.90;;;;;;;;;;5051061;28;20866;-79
2023/06/28 05:44:20;;;;;;;4.15;1.90;;;;;;;;;;5050526;28;20435;-79
2023/06/28 05:46:46;;;;;;;2.70;1.83;;;;;;;;;;5049895;28;20932;-78
2023/06/28 05:49:12;;;;;;;2.05;1.73;;;;;;;;;;5053623;28;20464;-79
2023/06/28 05:51:38;;;;;;;8.20;2.50;;;;;;;;;;5055215;28;20523;-79
2023/06/28 05:54:04;;;;;;;4.18;2.10;;;;;;;;;;5055153;28;20397;-79
2023/06/28 05:56:31;;;;;;;2.85;2.30;;;;;;;;;;5051353;28;20401;-79
2023/06/28 05:58:57;;;;;;;4.30;2.15;;;;;;;;;;5047633;28;20425;-79
2023/06/28 06:01:23;;;;;;;2.97;2.10;;;;;;;;;;5054319;28;20381;-79
2023/06/28 06:03:49;;;;;;;3.33;1.90;;;;;;;;;;5045127;28;20379;-79
2023/06/28 06:06:15;;;;;;;4.88;2.20;;;;;;;;;;5041455;28;20862;-79
2023/06/28 06:08:41;;;;;;;2.47;1.75;;;;;;;;;;5055560;28;20920;-78
2023/06/28 06:11:07;;;;;;;4.32;2.25;;;;;;;;;;5055253;28;20389;-79
2023/06/28 06:13:33;;;;;;;3.50;2.10;;;;;;;;;;5055050;28;20381;-79
2023/06/28 06:15:59;;;;;;;4.25;2.15;;;;;;;;;;5047291;28;20748;-79
2023/06/28 06:18:26;;;;;;;3.67;2.03;;;;;;;;;;5052203;28;20412;-79
2023/06/28 06:20:52;;;;;;;3.03;2.10;;;;;;;;;;5054094;28;20959;-79
2023/06/28 06:23:18;;;;;;;4.50;2.10;;;;;;;;;;5055109;28;20386;-79
2023/06/28 06:25:44;;;;;;;2.92;1.85;;;;;;;;;;5053420;28;20423;-79
2023/06/28 06:28:10;;;;;;;3.80;2.10;;;;;;;;;;5053136;28;20531;-79
2023/06/28 06:30:36;;;;;;;4.43;2.35;;;;;;;;;;5052925;28;20904;-79
2023/06/28 06:33:02;;;;;;;4.75;2.08;;;;;;;;;;5053528;28;20440;-79
2023/06/28 06:35:28;;;;;;;5.07;2.20;;;;;;;;;;5054997;28;20397;-79
2023/06/28 06:37:55;;;;;;;5.43;2.00;;;;;;;;;;5054423;28;20382;-79
2023/06/28 06:40:21;;;;;;;3.33;1.90;;;;;;;;;;5054056;28;20392;-79
2023/06/28 06:42:47;;;;;;;3.03;1.90;;;;;;;;;;5054891;28;20527;-79
2023/06/28 06:45:17;;;;;;;3.47;1.80;;;;;;;;;;5054783;28;20476;-79
2023/06/28 06:47:43;;;;;;;3.90;2.20;;;;;;;;;;5054545;28;20401;-79
2023/06/28 06:50:10;;;;;;;2.80;2.05;;;;;;;;;;5054309;28;20381;-79
2023/06/28 06:52:37;;;;;;;2.40;1.90;;;;;;;;;;5054588;28;20408;-79
2023/06/28 06:55:03;;;;;;;2.38;1.92;;;;;;;;;;5054570;28;20459;-79
2023/06/28 06:57:29;;;;;;;4.32;2.40;;;;;;;;;;5054013;28;20455;-78
2023/06/28 06:59:55;;;;;;;5.25;2.33;;;;;;;;;;5053886;28;20409;-79
2023/06/28 07:02:22;;;;;;;6.63;2.38;;;;;;;;;;5052484;28;20755;-81
2023/06/28 07:04:48;;;;;;;4.30;2.40;;;;;;;;;;5047650;28;20460;-82
2023/06/28 07:07:14;;;;;;;2.63;1.95;;;;;;;;;;5065597;28;20401;-82
2023/06/28 07:09:40;;;;;;;3.13;2.13;;;;;;;;;;5053320;28;20472;-82
2023/06/28 07:12:07;;;;;;;3.53;2.30;;;;;;;;;;5053122;28;20575;-82
2023/06/28 07:14:33;;;;;;;4.28;2.42;;;;;;;;;;5053617;28;20467;-83
2023/06/28 07:16:59;;;;;;;4.45;2.50;;;;;;;;;;5053678;28;20389;-82
2023/06/28 07:19:25;;;;;;;4.93;2.28;;;;;;;;;;5054227;28;20405;-82
2023/06/28 07:21:51;;;;;;;4.68;2.90;;;;;;;;;;5053277;28;20397;-82
2023/06/28 07:24:17;;;;;;;4.88;2.70;;;;;;;;;;5054282;28;20385;-83
2023/06/28 07:26:43;;;;;;;4.80;2.35;;;;;;;;;;5054365;28;20421;-82
2023/06/28 07:29:09;;;;;;;9.48;2.65;;;;;;;;;;5054182;28;20417;-83
2023/06/28 07:31:35;;;;;;;3.70;2.65;;;;;;;;;;5053083;28;20417;-83
2023/06/28 07:34:04;;;;;;;3.40;2.53;;;;;;;;;;5054057;28;20384;-83
2023/06/28 07:36:30;;;;;;;3.93;2.33;;;;;;;;;;5054976;28;20850;-82
2023/06/28 07:38:56;;;;;;;8.30;2.60;;;;;;;;;;5065870;28;20488;-82
2023/06/28 07:41:22;;;;;;;5.35;3.10;;;;;;;;;;5053801;28;20573;-82
2023/06/28 07:43:49;;;;;;;3.17;2.50;;;;;;;;;;5052561;28;20393;-82
2023/06/28 07:46:15;;;;;;;6.13;2.72;;;;;;;;;;5053831;28;20412;-82
2023/06/28 07:48:41;;;;;;;3.70;2.55;;;;;;;;;;5054007;28;20409;-82
2023/06/28 07:51:07;;;;;;;4.17;2.43;;;;;;;;;;5053986;28;20384;-83
2023/06/28 07:53:33;;;;;;;7.57;2.63;;;;;;;;;;5053820;28;20442;-81
2023/06/28 07:56:00;;;;;;;3.45;2.42;;;;;;;;;;5053287;28;20385;-83
2023/06/28 07:58:26;;;;;;;2.90;2.30;;;;;;;;;;5053313;28;20413;-84
2023/06/28 08:00:52;;;;;;;4.60;2.40;;;;;;;;;;5053549;28;20396;-81
2023/06/28 08:03:19;;;;;;;5.82;2.50;;;;;;;;;;5053697;28;20858;-81
2023/06/28 08:05:45;;;;;;;4.22;2.50;;;;;;;;;;5053930;28;20427;-83
2023/06/28 08:08:11;;;;;;;3.10;2.50;;;;;;;;;;5053571;28;20743;-82
2023/06/28 08:10:37;;;;;;;4.32;2.70;;;;;;;;;;5050032;28;20393;-82
2023/06/28 08:13:03;;;;;;;3.40;2.33;;;;;;;;;;5053605;28;20476;-82
2023/06/28 08:15:34;;;;;;;3.88;2.53;;;;;;;;;;5053480;28;20392;-82
2023/06/28 08:18:02;;;;;;;4.63;2.50;;;;;;;;;;5054598;28;20373;-82
2023/06/28 08:20:28;;;;;;;3.90;2.85;;;;;;;;;;5053730;28;20381;-82
2023/06/28 08:22:54;;;;;;;7.03;3.00;;;;;;;;;;5053342;28;20445;-82
2023/06/28 08:25:20;;;;;;;4.25;2.60;;;;;;;;;;5053604;28;20431;-81
2023/06/28 08:27:46;;;;;;;3.63;2.50;;;;;;;;;;5052858;28;20393;-82
2023/06/28 08:30:12;;;;;;;3.92;2.47;;;;;;;;;;5053151;28;20854;-82
2023/06/28 08:32:38;;;;;;;5.03;2.47;;;;;;;;;;5051733;28;20945;-82
2023/06/28 08:35:04;;;;;;;4.45;2.50;;;;;;;;;;5051139;28;20417;-82
2023/06/28 08:37:32;;;;;;;4.43;2.33;;;;;;;;;;5051070;28;20460;-82
2023/06/28 08:39:58;;;;;;;4.28;2.05;;;;;;;;;;5052685;28;20405;-82
2023/06/28 08:42:24;;;;;;;4.50;2.28;;;;;;;;;;5052811;28;20377;-83
2023/06/28 08:44:52;;;;;;;3.80;2.10;;;;;;;;;;5052993;28;20454;-82
2023/06/28 08:47:18;;;;;;;3.40;2.17;;;;;;;;;;5052500;28;20373;-82
2023/06/28 08:49:45;;;;;;;5.15;2.15;;;;;;;;;;5052992;28;20389;-83
2023/06/28 08:52:12;;;;;;;2.88;1.88;;;;;;;;;;5052643;28;20389;-81
2023/06/28 08:54:38;;;;;;;4.07;2.40;;;;;;;;;;5052800;28;20389;-83
2023/06/28 08:57:05;;;;;;;3.20;2.42;;;;;;;;;;5052558;28;20496;-81
2023/06/28 08:59:31;;;;;;;5.47;2.60;;;;;;;;;;5051384;28;20417;-82
2023/06/28 09:01:59;;;;;;;3.88;2.72;;;;;;;;;;5052586;28;20393;-82
2023/06/28 09:04:28;;;;;;;4.07;2.55;;;;;;;;;;5052588;28;20542;-82
2023/06/28 09:06:56;;;;;;;3.35;2.20;;;;;;;;;;5050813;28;20747;-81
2023/06/28 09:09:22;;;;;;;3.67;2.17;;;;;;;;;;5045177;28;20404;-82
2023/06/28 09:11:48;;;;;;;3.30;2.30;;;;;;;;;;5051841;28;20481;-80
2023/06/28 09:14:14;;;;;;;5.47;2.58;;;;;;;;;;5052089;28;20381;-80
2023/06/28 09:16:40;;;;;;;4.72;2.25;;;;;;;;;;5050178;28;20401;-81
2023/06/28 09:19:06;;;;;;;4.72;2.40;;;;;;;;;;5050328;28;20878;-81
2023/06/28 09:21:34;;;;;;;5.28;2.60;;;;;;;;;;5052077;28;20746;-80
2023/06/28 09:24:00;;;;;;;6.10;3.22;;;;;;;;;;5051175;28;20378;-82
2023/06/28 09:26:33;;;;;;;28.35;3.90;;;;;;;;;;5051822;28;20378;-82
2023/06/28 09:28:59;;;;;;;4.88;2.53;;;;;;;;;;5052775;28;20384;-80
2023/06/28 09:31:25;;;;;;;4.93;2.33;;;;;;;;;;5052269;28;20381;-81
2023/06/28 09:33:54;;;;;;;3.97;2.13;;;;;;;;;;5052738;28;20466;-81
2023/06/28 09:36:23;;;;;;;2.72;2.20;;;;;;;;;;5052472;28;20377;-81
2023/06/28 09:38:49;;;;;;;5.47;2.47;;;;;;;;;;5038574;28;20459;-81
2023/06/28 09:41:15;;;;;;;4.38;2.50;;;;;;;;;;5052305;28;20464;-80
2023/06/28 09:43:41;;;;;;;8.10;2.40;;;;;;;;;;5052024;28;20384;-81
2023/06/28 09:46:15;;;;;;;4.57;2.53;;;;;;;;;;5051931;28;20792;-81
2023/06/28 09:48:42;;;;;;;5.35;2.28;;;;;;;;;;5052021;28;20499;-81
2023/06/28 09:51:09;;;;;;;2.47;1.60;;;;;;;;;;5051715;28;20473;-80
2023/06/28 09:53:35;;;;;;;2.95;2.00;;;;;;;;;;5051872;28;20409;-83
2023/06/28 09:56:01;;;;;;;5.97;2.10;;;;;;;;;;5050731;28;20902;-80
2023/06/28 09:58:28;;;;;;;3.75;2.10;;;;;;;;;;5052065;28;20504;-81
2023/06/28 10:00:54;;;;;;;3.92;1.65;;;;;;;;;;5096317;22;20480;-89
2023/06/28 10:03:21;;;;;;;2.88;1.70;;;;;;;;;;5061519;28;20397;-88
2023/06/28 10:05:48;;;;;;;3.88;1.90;;;;;;;;;;5055488;28;20866;-88
2023/06/28 10:08:15;;;;;;;2.92;1.85;;;;;;;;;;5067221;28;20388;-89
2023/06/28 10:10:41;;;;;;;3.28;2.05;;;;;;;;;;5064035;28;20384;-86
2023/06/28 10:13:09;;;;;;;3.13;2.20;;;;;;;;;;5047868;28;20468;-84
2023/06/28 10:15:48;;;;;;;3.40;1.90;;;;;;;;;;5052018;28;20926;-83
2023/06/28 10:18:14;;;;;;;2.83;1.80;;;;;;;;;;5040185;28;20417;-84
2023/06/28 10:20:41;;;;;;;4.60;1.77;;;;;;;;;;5046140;28;20381;-83
2023/06/28 10:23:08;;;;;;;3.42;1.92;;;;;;;;;;5052716;28;20386;-83
2023/06/28 10:25:34;;;;;;;3.28;1.77;;;;;;;;;;5050450;28;20377;-83
2023/06/28 10:28:01;;;;;;;3.60;1.73;;;;;;;;;;5048659;28;20404;-84
2023/06/28 10:30:27;;;;;;;2.43;1.63;;;;;;;;;;5049545;28;20370;-82
2023/06/28 10:32:53;;;;;;;3.83;1.58;;;;;;;;;;5051715;28;20866;-83
2023/06/28 10:35:20;;;;;;;3.00;1.33;;;;;;;;;;5052199;28;20381;-83
2023/06/28 10:37:47;;;;;;;3.17;1.63;;;;;;;;;;5038442;28;20386;-83
2023/06/28 10:40:13;;;;;;;2.38;1.50;;;;;;;;;;5034844;28;20446;-83
2023/06/28 10:42:39;;;;;;;3.53;1.80;;;;;;;;;;5034717;28;20387;-82
2023/06/28 10:45:08;;;;;;;2.42;1.30;;;;;;;;;;5034942;28;20376;-83
2023/06/28 10:47:34;;;;;;;2.78;1.60;;;;;;;;;;5034882;28;20394;-83
2023/06/28 10:50:07;;;;;;;1.67;1.10;;;;;;;;;;5034551;28;20379;-83
2023/06/28 10:52:34;;;;;;;3.08;1.40;;;;;;;;;;5034734;28;20375;-84
2023/06/28 10:55:01;;;;;;;2.65;1.38;;;;;;;;;;5036287;28;20387;-83
2023/06/28 10:57:37;;;;;;;2.25;1.20;;;;;;;;;;5044160;28;20425;-83
2023/06/28 11:00:09;;;;;;;2.35;1.58;;;;;;;;;;5032790;28;20407;-83
2023/06/28 11:02:51;;;;;;;2.33;1.40;;;;;;;;;;5034646;28;20869;-84
2023/06/28 11:05:37;;;;;;;1.93;1.30;;;;;;;;;;5033173;28;20466;-84
2023/06/28 11:08:10;;;;;;;2.22;1.20;;;;;;;;;;5034463;28;20384;-84
2023/06/28 11:10:37;;;;;;;3.92;1.50;;;;;;;;;;5047979;28;20394;-83
2023/06/28 11:13:03;;;;;;;2.25;1.45;;;;;;;;;;5032028;28;20887;-83
2023/06/28 11:15:29;;;;;;;3.50;1.50;;;;;;;;;;5040343;28;20388;-83
2023/06/28 11:18:06;;;;;;;5.28;1.73;;;;;;;;;;5033570;28;20474;-83
2023/06/28 11:20:32;;;;;;;2.28;1.45;;;;;;;;;;5040234;28;20389;-83
2023/06/28 11:22:58;;;;;;;3.08;1.50;;;;;;;;;;5034115;28;20410;-84
2023/06/28 11:25:28;;;;;;;3.63;1.35;;;;;;;;;;5036397;28;20386;-84
2023/06/28 11:27:57;;;;;;;5.32;1.60;;;;;;;;;;5042438;28;20386;-84
2023/06/28 11:30:43;;;;;;;4.80;1.60;;;;;;;;;;5053113;28;20807;-84
2023/06/28 11:33:11;;;;;;;3.53;1.50;;;;;;;;;;5038711;28;20452;-84
2023/06/28 11:35:37;;;;;;;2.38;1.45;;;;;;;;;;5049138;28;20412;-83
2023/06/28 11:38:04;;;;;;;5.15;1.70;;;;;;;;;;5053373;28;20908;-84
2023/06/28 11:40:30;;;;;;;1.98;1.20;;;;;;;;;;5053851;28;20390;-84
2023/06/28 11:42:56;;;;;;;2.80;1.40;;;;;;;;;;5053513;28;20381;-83
2023/06/28 11:45:22;;;;;;;2.05;1.40;;;;;;;;;;5053639;28;20385;-84
2023/06/28 11:47:48;;;;;;;3.65;1.60;;;;;;;;;;5052352;28;20938;-84
2023/06/28 11:50:15;;;;;;;4.00;1.50;;;;;;;;;;5045546;28;20747;-84
2023/06/28 11:52:46;;;;;;;3.22;1.70;;;;;;;;;;5053473;28;20871;-84
2023/06/28 11:55:14;;;;;;;3.38;1.60;;;;;;;;;;5053256;28;20397;-83
2023/06/28 11:57:47;;;;;;;2.15;1.45;;;;;;;;;;5053252;28;20378;-84
2023/06/28 12:00:17;;;;;;;3.70;1.50;;;;;;;;;;5052937;28;20447;-83
2023/06/28 12:02:52;;;;;;;3.53;1.63;;;;;;;;;;5049747;28;20381;-84
2023/06/28 12:05:21;;;;;;;3.00;1.70;;;;;;;;;;5052784;28;20421;-84
2023/06/28 12:07:48;;;;;;;2.75;1.50;;;;;;;;;;5033907;28;20903;-84
2023/06/28 12:10:16;;;;;;;5.15;1.65;;;;;;;;;;5052702;28;20920;-84
2023/06/28 12:12:42;;;;;;;3.97;1.77;;;;;;;;;;5061005;28;20383;-85
2023/06/28 12:15:14;;;;;;;5.38;2.20;;;;;;;;;;5042787;28;20379;-84
2023/06/28 12:17:41;;;;;;;4.40;2.28;;;;;;;;;;5040392;28;20858;-85
2023/06/28 12:20:08;;;;;;;2.72;1.90;;;;;;;;;;5059953;28;20408;-83
2023/06/28 12:22:46;;;;;;;3.88;2.17;;;;;;;;;;5032847;28;20876;-84
2023/06/28 12:25:12;;;;;;;3.87;2.20;;;;;;;;;;5032938;28;20381;-84
2023/06/28 12:27:42;;;;;;;2.90;2.30;;;;;;;;;;5038052;28;20403;-84
2023/06/28 12:30:15;;;;;;;4.78;2.55;;;;;;;;;;5032704;28;20375;-83
2023/06/28 12:32:46;;;;;;;4.30;3.00;;;;;;;;;;5032617;28;20387;-86
2023/06/28 12:35:23;;;;;;;4.10;2.80;;;;;;;;;;5032856;28;20474;-84
2023/06/28 12:37:58;;;;;;;5.18;2.65;;;;;;;;;;5032462;28;20504;-84
2023/06/28 12:40:32;;;;;;;4.10;2.65;;;;;;;;;;5058429;28;20392;-85
2023/06/28 12:43:27;;;;;;;3.75;2.25;;;;;;;;;;5039351;28;20428;-85
2023/06/28 12:45:55;;;;;;;3.42;2.00;;;;;;;;;;5022554;28;20490;-84
2023/06/28 12:48:21;;;;;;;4.63;2.30;;;;;;;;;;5052429;28;20378;-85
2023/06/28 12:50:48;;;;;;;4.68;2.03;;;;;;;;;;5052198;28;20480;-84
2023/06/28 12:53:14;;;;;;;3.53;1.80;;;;;;;;;;5052329;28;20447;-84
2023/06/28 12:55:40;;;;;;;3.15;1.75;;;;;;;;;;5044988;28;20923;-85
2023/06/28 12:58:08;;;;;;;3.22;2.28;;;;;;;;;;5059046;28;20470;-84
2023/06/28 13:00:35;;;;;;;2.63;1.80;;;;;;;;;;5030251;28;20888;-84
2023/06/28 13:03:01;;;;;;;4.00;1.85;;;;;;;;;;5039194;28;20760;-86
2023/06/28 13:05:27;;;;;;;2.93;1.93;;;;;;;;;;5052545;28;20521;-84
2023/06/28 13:07:53;;;;;;;3.73;2.10;;;;;;;;;;5032078;28;20391;-85
2023/06/28 13:10:19;;;;;;;2.87;2.10;;;;;;;;;;5032069;28;20391;-84
2023/06/28 13:12:45;;;;;;;4.40;1.93;;;;;;;;;;5032213;28;20430;-86
2023/06/28 13:15:11;;;;;;;3.70;1.57;;;;;;;;;;5045941;28;20397;-84
2023/06/28 13:17:37;;;;;;;2.10;1.53;;;;;;;;;;5032251;28;20387;-84
2023/06/28 13:20:04;;;;;;;2.90;1.73;;;;;;;;;;5032022;28;20414;-84
2023/06/28 13:22:30;;;;;;;3.47;1.70;;;;;;;;;;5031947;28;20383;-84
2023/06/28 13:24:56;;;;;;;2.75;1.60;;;;;;;;;;5032216;28;20389;-84
2023/06/28 13:27:25;;;;;;;3.60;1.70;;;;;;;;;;5031832;28;20382;-84
2023/06/28 13:29:51;;;;;;;4.00;2.10;;;;;;;;;;5030941;28;20392;-85
2023/06/28 13:32:17;;;;;;;4.90;1.95;;;;;;;;;;5031504;28;20395;-84
2023/06/28 13:34:43;;;;;;;3.13;1.80;;;;;;;;;;5032209;28;20780;-83
2023/06/28 13:37:09;;;;;;;5.43;1.87;;;;;;;;;;5031900;28;20423;-84
2023/06/28 13:39:35;;;;;;;2.83;1.70;;;;;;;;;;5030579;28;20430;-84
2023/06/28 13:42:01;;;;;;;2.35;1.73;;;;;;;;;;5032119;28;20816;-83
2023/06/28 13:44:27;;;;;;;3.50;2.22;;;;;;;;;;5031795;28;20375;-83
2023/06/28 13:46:53;;;;;;;4.18;1.67;;;;;;;;;;5030815;28;20789;-84
2023/06/28 13:49:19;;;;;;;3.22;1.90;;;;;;;;;;5030918;28;20417;-84
2023/06/28 13:51:48;;;;;;;3.20;1.70;;;;;;;;;;5032330;28;20437;-83
2023/06/28 13:54:14;;;;;;;2.30;1.65;;;;;;;;;;5031700;28;20407;-83
2023/06/28 13:56:40;;;;;;;3.10;2.10;;;;;;;;;;5032338;28;20414;-84
2023/06/28 13:59:06;;;;;;;3.13;2.20;;;;;;;;;;5051571;28;20499;-84
2023/06/28 14:01:34;;;;;;;3.47;1.70;;;;;;;;;;5051209;28;20874;-84
2023/06/28 14:04:00;;;;;;;3.17;1.60;;;;;;;;;;5039482;28;20410;-88
2023/06/28 14:06:26;;;;;;;2.13;1.35;;;;;;;;;;5050934;28;20374;-86
2023/06/28 14:08:52;;;;;;;2.80;1.75;;;;;;;;;;5047642;28;20878;-86
2023/06/28 14:11:18;;;;;;;3.22;1.90;;;;;;;;;;5045702;28;20378;-84
2023/06/28 14:13:44;;;;;;;2.67;1.55;;;;;;;;;;5053441;28;20880;-86
2023/06/28 14:16:10;;;;;;;4.15;1.63;;;;;;;;;;5034227;28;20391;-86
2023/06/28 14:18:36;;;;;;;3.15;1.42;;;;;;;;;;5035370;28;20439;-86
2023/06/28 14:21:02;;;;;;;3.05;1.50;;;;;;;;;;5043882;28;20376;-86
2023/06/28 14:23:28;;;;;;;2.53;1.40;;;;;;;;;;5060941;28;20374;-87
2023/06/28 14:25:54;;;;;;;2.28;1.60;;;;;;;;;;5041156;28;20373;-85
2023/06/28 14:28:21;;;;;;;2.88;1.40;;;;;;;;;;5043820;28;20479;-86
2023/06/28 14:30:47;;;;;;;1.92;1.50;;;;;;;;;;5035027;28;20386;-84
2023/06/28 14:33:13;;;;;;;4.07;1.60;;;;;;;;;;5035108;28;20387;-84
2023/06/28 14:35:39;;;;;;;2.00;1.38;;;;;;;;;;5033726;28;20451;-85
2023/06/28 14:38:05;;;;;;;2.47;1.67;;;;;;;;;;5034993;28;20410;-85
2023/06/28 14:40:31;;;;;;;3.05;1.45;;;;;;;;;;5048941;28;20924;-85